sensor_id;sensor_type;location;lat;lon;timestamp;P1;durP1;ratioP1;P2;durP2;ratioP2
76059;SDS011;64759;52.220;5.170;2022-12-24T00:01:15;35.83;;;6.10;;
76059;SDS011;64759;52.220;5.170;2022-12-24T00:03:41;46.30;;;7.72;;
76059;SDS011;64759;52.220;5.170;2022-12-24T00:06:07;49.92;;;7.65;;
76059;SDS011;64759;52.220;5.170;2022-12-24T00:08:37;40.22;;;7.03;;
76059;SDS011;64759;52.220;5.170;2022-12-24T00:11:02;50.25;;;6.47;;
76059;SDS011;64759;52.220;5.170;2022-12-24T00:13:28;31.30;;;6.10;;
76059;SDS011;64759;52.220;5.170;2022-12-24T00:15:53;43.00;;;7.68;;
76059;SDS011;64759;52.220;5.170;2022-12-24T00:18:19;39.50;;;6.22;;
76059;SDS011;64759;52.220;5.170;2022-12-24T00:20:47;42.80;;;7.50;;
76059;SDS011;64759;52.220;5.170;2022-12-24T00:23:14;48.15;;;6.90;;
76059;SDS011;64759;52.220;5.170;2022-12-24T00:25:41;38.17;;;6.57;;
76059;SDS011;64759;52.220;5.170;2022-12-24T00:28:06;39.13;;;7.25;;
76059;SDS011;64759;52.220;5.170;2022-12-24T00:30:32;39.33;;;7.07;;
76059;SDS011;64759;52.220;5.170;2022-12-24T00:32:57;40.28;;;6.15;;
76059;SDS011;64759;52.220;5.170;2022-12-24T00:35:22;49.25;;;7.70;;
76059;SDS011;64759;52.220;5.170;2022-12-24T00:37:48;35.38;;;5.43;;
76059;SDS011;64759;52.220;5.170;2022-12-24T00:40:14;44.35;;;6.72;;
76059;SDS011;64759;52.220;5.170;2022-12-24T00:42:41;45.60;;;7.35;;
76059;SDS011;64759;52.220;5.170;2022-12-24T00:45:07;34.20;;;5.95;;
76059;SDS011;64759;52.220;5.170;2022-12-24T00:47:33;48.80;;;6.75;;
76059;SDS011;64759;52.220;5.170;2022-12-24T00:49:58;46.35;;;5.95;;
76059;SDS011;64759;52.220;5.170;2022-12-24T00:52:23;51.53;;;7.13;;
76059;SDS011;64759;52.220;5.170;2022-12-24T00:54:49;45.10;;;7.45;;
76059;SDS011;64759;52.220;5.170;2022-12-24T00:57:14;48.45;;;6.88;;
76059;SDS011;64759;52.220;5.170;2022-12-24T00:59:41;46.92;;;6.35;;
76059;SDS011;64759;52.220;5.170;2022-12-24T01:02:06;54.50;;;9.85;;
76059;SDS011;64759;52.220;5.170;2022-12-24T01:04:32;44.08;;;6.47;;
76059;SDS011;64759;52.220;5.170;2022-12-24T01:07:16;43.30;;;7.38;;
76059;SDS011;64759;52.220;5.170;2022-12-24T01:09:42;53.75;;;8.48;;
76059;SDS011;64759;52.220;5.170;2022-12-24T01:12:07;49.17;;;8.13;;
76059;SDS011;64759;52.220;5.170;2022-12-24T01:14:32;50.67;;;7.60;;
76059;SDS011;64759;52.220;5.170;2022-12-24T01:16:58;50.63;;;7.20;;
76059;SDS011;64759;52.220;5.170;2022-12-24T01:19:23;49.72;;;8.77;;
76059;SDS011;64759;52.220;5.170;2022-12-24T01:21:48;40.88;;;6.20;;
76059;SDS011;64759;52.220;5.170;2022-12-24T01:24:14;48.95;;;8.18;;
76059;SDS011;64759;52.220;5.170;2022-12-24T01:26:40;51.13;;;7.22;;
76059;SDS011;64759;52.220;5.170;2022-12-24T01:29:06;55.13;;;9.00;;
76059;SDS011;64759;52.220;5.170;2022-12-24T01:31:32;47.95;;;7.43;;
76059;SDS011;64759;52.220;5.170;2022-12-24T01:33:57;44.08;;;6.07;;
76059;SDS011;64759;52.220;5.170;2022-12-24T01:36:22;46.60;;;7.32;;
76059;SDS011;64759;52.220;5.170;2022-12-24T01:38:48;50.13;;;7.05;;
76059;SDS011;64759;52.220;5.170;2022-12-24T01:41:15;43.83;;;6.75;;
76059;SDS011;64759;52.220;5.170;2022-12-24T01:46:51;44.58;;;8.48;;
76059;SDS011;64759;52.220;5.170;2022-12-24T01:49:20;49.28;;;7.18;;
76059;SDS011;64759;52.220;5.170;2022-12-24T01:51:47;54.85;;;7.07;;
76059;SDS011;64759;52.220;5.170;2022-12-24T01:54:21;61.40;;;8.60;;
76059;SDS011;64759;52.220;5.170;2022-12-24T01:57:05;51.58;;;8.48;;
76059;SDS011;64759;52.220;5.170;2022-12-24T01:59:33;50.78;;;8.23;;
76059;SDS011;64759;52.220;5.170;2022-12-24T02:02:00;57.78;;;7.25;;
76059;SDS011;64759;52.220;5.170;2022-12-24T02:04:36;43.95;;;6.65;;
76059;SDS011;64759;52.220;5.170;2022-12-24T02:09:32;43.42;;;7.65;;
76059;SDS011;64759;52.220;5.170;2022-12-24T02:11:59;53.75;;;9.13;;
76059;SDS011;64759;52.220;5.170;2022-12-24T02:14:26;45.78;;;7.22;;
76059;SDS011;64759;52.220;5.170;2022-12-24T02:16:57;60.35;;;8.65;;
76059;SDS011;64759;52.220;5.170;2022-12-24T02:27:41;48.75;;;7.63;;
76059;SDS011;64759;52.220;5.170;2022-12-24T02:30:18;45.17;;;9.02;;
76059;SDS011;64759;52.220;5.170;2022-12-24T02:38:20;59.35;;;8.02;;
76059;SDS011;64759;52.220;5.170;2022-12-24T02:40:48;48.35;;;8.90;;
76059;SDS011;64759;52.220;5.170;2022-12-24T02:43:21;62.45;;;7.95;;
76059;SDS011;64759;52.220;5.170;2022-12-24T02:45:58;49.42;;;7.05;;
76059;SDS011;64759;52.220;5.170;2022-12-24T02:48:30;51.95;;;8.35;;
76059;SDS011;64759;52.220;5.170;2022-12-24T02:51:06;62.20;;;9.00;;
76059;SDS011;64759;52.220;5.170;2022-12-24T02:53:34;52.05;;;7.65;;
76059;SDS011;64759;52.220;5.170;2022-12-24T03:01:56;57.05;;;8.73;;
76059;SDS011;64759;52.220;5.170;2022-12-24T03:04:47;56.85;;;9.07;;
76059;SDS011;64759;52.220;5.170;2022-12-24T03:07:36;60.97;;;9.68;;
76059;SDS011;64759;52.220;5.170;2022-12-24T03:10:11;39.65;;;6.07;;
76059;SDS011;64759;52.220;5.170;2022-12-24T03:12:53;55.13;;;7.40;;
76059;SDS011;64759;52.220;5.170;2022-12-24T03:15:23;48.00;;;7.68;;
76059;SDS011;64759;52.220;5.170;2022-12-24T03:17:52;46.97;;;6.80;;
76059;SDS011;64759;52.220;5.170;2022-12-24T03:20:22;33.53;;;6.22;;
76059;SDS011;64759;52.220;5.170;2022-12-24T03:22:53;40.83;;;6.90;;
76059;SDS011;64759;52.220;5.170;2022-12-24T03:25:19;52.15;;;6.82;;
76059;SDS011;64759;52.220;5.170;2022-12-24T03:27:48;48.97;;;6.20;;
76059;SDS011;64759;52.220;5.170;2022-12-24T03:30:14;41.90;;;6.20;;
76059;SDS011;64759;52.220;5.170;2022-12-24T03:32:40;41.17;;;6.57;;
76059;SDS011;64759;52.220;5.170;2022-12-24T03:35:06;43.40;;;7.10;;
76059;SDS011;64759;52.220;5.170;2022-12-24T03:37:32;39.22;;;6.47;;
76059;SDS011;64759;52.220;5.170;2022-12-24T03:39:57;44.85;;;6.57;;
76059;SDS011;64759;52.220;5.170;2022-12-24T03:42:22;47.50;;;6.35;;
76059;SDS011;64759;52.220;5.170;2022-12-24T03:44:48;41.97;;;6.97;;
76059;SDS011;64759;52.220;5.170;2022-12-24T03:47:13;46.25;;;6.25;;
76059;SDS011;64759;52.220;5.170;2022-12-24T03:49:39;39.05;;;5.65;;
76059;SDS011;64759;52.220;5.170;2022-12-24T03:52:04;45.47;;;6.65;;
76059;SDS011;64759;52.220;5.170;2022-12-24T03:54:30;42.15;;;6.90;;
76059;SDS011;64759;52.220;5.170;2022-12-24T03:56:55;42.97;;;6.45;;
76059;SDS011;64759;52.220;5.170;2022-12-24T03:59:20;46.42;;;6.57;;
76059;SDS011;64759;52.220;5.170;2022-12-24T04:01:46;48.45;;;7.03;;
76059;SDS011;64759;52.220;5.170;2022-12-24T04:04:11;43.10;;;6.22;;
76059;SDS011;64759;52.220;5.170;2022-12-24T04:06:36;39.97;;;6.97;;
76059;SDS011;64759;52.220;5.170;2022-12-24T04:09:02;42.10;;;7.78;;
76059;SDS011;64759;52.220;5.170;2022-12-24T04:11:29;41.92;;;7.40;;
76059;SDS011;64759;52.220;5.170;2022-12-24T04:13:56;46.53;;;8.57;;
76059;SDS011;64759;52.220;5.170;2022-12-24T04:16:21;50.00;;;7.72;;
76059;SDS011;64759;52.220;5.170;2022-12-24T04:18:47;44.85;;;6.30;;
76059;SDS011;64759;52.220;5.170;2022-12-24T04:21:12;52.83;;;7.45;;
76059;SDS011;64759;52.220;5.170;2022-12-24T04:23:39;47.88;;;7.93;;
76059;SDS011;64759;52.220;5.170;2022-12-24T04:26:06;51.08;;;7.80;;
76059;SDS011;64759;52.220;5.170;2022-12-24T04:28:34;57.08;;;7.47;;
76059;SDS011;64759;52.220;5.170;2022-12-24T04:31:00;48.22;;;8.13;;
76059;SDS011;64759;52.220;5.170;2022-12-24T04:33:27;46.97;;;8.45;;
76059;SDS011;64759;52.220;5.170;2022-12-24T04:35:53;47.08;;;7.63;;
76059;SDS011;64759;52.220;5.170;2022-12-24T04:38:18;74.18;;;10.18;;
76059;SDS011;64759;52.220;5.170;2022-12-24T04:40:43;59.28;;;8.73;;
76059;SDS011;64759;52.220;5.170;2022-12-24T04:43:09;73.82;;;8.50;;
76059;SDS011;64759;52.220;5.170;2022-12-24T04:45:34;57.55;;;9.35;;
76059;SDS011;64759;52.220;5.170;2022-12-24T04:48:00;60.85;;;10.02;;
76059;SDS011;64759;52.220;5.170;2022-12-24T04:50:25;50.00;;;8.75;;
76059;SDS011;64759;52.220;5.170;2022-12-24T04:52:50;63.03;;;8.65;;
76059;SDS011;64759;52.220;5.170;2022-12-24T04:55:16;52.72;;;8.18;;
76059;SDS011;64759;52.220;5.170;2022-12-24T04:57:41;54.67;;;10.10;;
76059;SDS011;64759;52.220;5.170;2022-12-24T05:00:07;47.30;;;8.00;;
76059;SDS011;64759;52.220;5.170;2022-12-24T05:02:33;46.60;;;7.30;;
76059;SDS011;64759;52.220;5.170;2022-12-24T05:04:59;59.10;;;9.27;;
76059;SDS011;64759;52.220;5.170;2022-12-24T05:07:24;55.08;;;8.77;;
76059;SDS011;64759;52.220;5.170;2022-12-24T05:09:49;48.28;;;8.27;;
76059;SDS011;64759;52.220;5.170;2022-12-24T05:12:15;62.60;;;9.32;;
76059;SDS011;64759;52.220;5.170;2022-12-24T05:14:40;59.25;;;9.60;;
76059;SDS011;64759;52.220;5.170;2022-12-24T05:17:05;58.15;;;8.48;;
76059;SDS011;64759;52.220;5.170;2022-12-24T05:19:31;53.83;;;8.23;;
76059;SDS011;64759;52.220;5.170;2022-12-24T05:21:57;49.40;;;7.88;;
76059;SDS011;64759;52.220;5.170;2022-12-24T05:24:40;47.42;;;7.63;;
76059;SDS011;64759;52.220;5.170;2022-12-24T05:27:24;53.38;;;7.53;;
76059;SDS011;64759;52.220;5.170;2022-12-24T05:29:50;48.00;;;7.85;;
76059;SDS011;64759;52.220;5.170;2022-12-24T05:32:15;58.17;;;9.82;;
76059;SDS011;64759;52.220;5.170;2022-12-24T05:34:41;52.85;;;7.80;;
76059;SDS011;64759;52.220;5.170;2022-12-24T05:37:06;54.92;;;7.47;;
76059;SDS011;64759;52.220;5.170;2022-12-24T05:39:31;63.53;;;8.98;;
76059;SDS011;64759;52.220;5.170;2022-12-24T05:41:57;46.15;;;6.18;;
76059;SDS011;64759;52.220;5.170;2022-12-24T05:44:22;45.13;;;7.00;;
76059;SDS011;64759;52.220;5.170;2022-12-24T05:46:47;53.72;;;9.00;;
76059;SDS011;64759;52.220;5.170;2022-12-24T05:49:13;45.72;;;7.22;;
76059;SDS011;64759;52.220;5.170;2022-12-24T05:51:38;54.28;;;8.95;;
76059;SDS011;64759;52.220;5.170;2022-12-24T05:54:04;61.25;;;8.30;;
76059;SDS011;64759;52.220;5.170;2022-12-24T05:56:30;56.13;;;7.63;;
76059;SDS011;64759;52.220;5.170;2022-12-24T05:58:56;52.55;;;7.38;;
76059;SDS011;64759;52.220;5.170;2022-12-24T06:01:22;41.97;;;7.25;;
76059;SDS011;64759;52.220;5.170;2022-12-24T06:03:47;52.30;;;7.60;;
76059;SDS011;64759;52.220;5.170;2022-12-24T06:06:18;63.92;;;8.23;;
76059;SDS011;64759;52.220;5.170;2022-12-24T06:08:45;62.88;;;7.55;;
76059;SDS011;64759;52.220;5.170;2022-12-24T06:11:12;44.83;;;8.05;;
76059;SDS011;64759;52.220;5.170;2022-12-24T06:13:39;50.60;;;7.78;;
76059;SDS011;64759;52.220;5.170;2022-12-24T06:16:06;61.58;;;9.07;;
76059;SDS011;64759;52.220;5.170;2022-12-24T06:18:33;50.88;;;7.63;;
76059;SDS011;64759;52.220;5.170;2022-12-24T06:21:00;54.00;;;7.85;;
76059;SDS011;64759;52.220;5.170;2022-12-24T06:23:30;45.80;;;7.07;;
76059;SDS011;64759;52.220;5.170;2022-12-24T06:25:57;69.07;;;9.50;;
76059;SDS011;64759;52.220;5.170;2022-12-24T06:28:27;56.47;;;8.55;;
76059;SDS011;64759;52.220;5.170;2022-12-24T06:30:54;46.35;;;8.07;;
76059;SDS011;64759;52.220;5.170;2022-12-24T06:33:19;55.97;;;8.07;;
76059;SDS011;64759;52.220;5.170;2022-12-24T06:35:45;58.35;;;7.38;;
76059;SDS011;64759;52.220;5.170;2022-12-24T06:38:11;40.42;;;7.10;;
76059;SDS011;64759;52.220;5.170;2022-12-24T06:40:38;54.63;;;8.38;;
76059;SDS011;64759;52.220;5.170;2022-12-24T06:43:04;61.00;;;9.40;;
76059;SDS011;64759;52.220;5.170;2022-12-24T06:45:29;58.58;;;9.48;;
76059;SDS011;64759;52.220;5.170;2022-12-24T06:47:56;66.45;;;8.38;;
76059;SDS011;64759;52.220;5.170;2022-12-24T06:50:21;60.42;;;9.73;;
76059;SDS011;64759;52.220;5.170;2022-12-24T06:52:47;63.97;;;9.23;;
76059;SDS011;64759;52.220;5.170;2022-12-24T06:55:12;53.88;;;8.48;;
76059;SDS011;64759;52.220;5.170;2022-12-24T06:57:38;65.10;;;7.47;;
76059;SDS011;64759;52.220;5.170;2022-12-24T07:00:04;51.72;;;8.38;;
76059;SDS011;64759;52.220;5.170;2022-12-24T07:02:32;59.50;;;9.07;;
76059;SDS011;64759;52.220;5.170;2022-12-24T07:04:58;54.15;;;8.63;;
76059;SDS011;64759;52.220;5.170;2022-12-24T07:07:23;56.17;;;8.40;;
76059;SDS011;64759;52.220;5.170;2022-12-24T07:09:48;80.97;;;9.85;;
76059;SDS011;64759;52.220;5.170;2022-12-24T07:12:14;65.03;;;9.38;;
76059;SDS011;64759;52.220;5.170;2022-12-24T07:14:39;50.90;;;7.82;;
76059;SDS011;64759;52.220;5.170;2022-12-24T07:17:05;57.45;;;8.65;;
76059;SDS011;64759;52.220;5.170;2022-12-24T07:19:30;61.20;;;9.38;;
76059;SDS011;64759;52.220;5.170;2022-12-24T07:21:55;63.40;;;8.88;;
76059;SDS011;64759;52.220;5.170;2022-12-24T07:24:21;60.70;;;8.65;;
76059;SDS011;64759;52.220;5.170;2022-12-24T07:26:46;72.35;;;10.25;;
76059;SDS011;64759;52.220;5.170;2022-12-24T07:29:12;66.57;;;9.63;;
76059;SDS011;64759;52.220;5.170;2022-12-24T07:31:37;57.42;;;9.90;;
76059;SDS011;64759;52.220;5.170;2022-12-24T07:34:02;60.65;;;8.40;;
76059;SDS011;64759;52.220;5.170;2022-12-24T07:36:28;61.83;;;9.07;;
76059;SDS011;64759;52.220;5.170;2022-12-24T07:38:53;65.93;;;10.52;;
76059;SDS011;64759;52.220;5.170;2022-12-24T07:41:19;71.35;;;9.55;;
76059;SDS011;64759;52.220;5.170;2022-12-24T07:43:44;62.80;;;10.38;;
76059;SDS011;64759;52.220;5.170;2022-12-24T07:46:10;61.40;;;8.65;;
76059;SDS011;64759;52.220;5.170;2022-12-24T07:48:36;57.60;;;9.75;;
76059;SDS011;64759;52.220;5.170;2022-12-24T07:51:02;71.70;;;10.02;;
76059;SDS011;64759;52.220;5.170;2022-12-24T07:53:28;56.65;;;9.32;;
76059;SDS011;64759;52.220;5.170;2022-12-24T07:55:54;58.75;;;8.52;;
76059;SDS011;64759;52.220;5.170;2022-12-24T07:58:20;61.63;;;8.75;;
76059;SDS011;64759;52.220;5.170;2022-12-24T08:00:46;75.78;;;11.05;;
76059;SDS011;64759;52.220;5.170;2022-12-24T08:03:18;67.07;;;8.88;;
76059;SDS011;64759;52.220;5.170;2022-12-24T08:05:44;62.70;;;9.73;;
76059;SDS011;64759;52.220;5.170;2022-12-24T08:08:10;65.38;;;8.77;;
76059;SDS011;64759;52.220;5.170;2022-12-24T08:10:42;59.25;;;8.20;;
76059;SDS011;64759;52.220;5.170;2022-12-24T08:13:09;73.80;;;10.98;;
76059;SDS011;64759;52.220;5.170;2022-12-24T08:15:34;59.70;;;9.00;;
76059;SDS011;64759;52.220;5.170;2022-12-24T08:17:59;63.75;;;10.57;;
76059;SDS011;64759;52.220;5.170;2022-12-24T08:20:25;71.32;;;10.02;;
76059;SDS011;64759;52.220;5.170;2022-12-24T08:22:51;59.95;;;9.05;;
76059;SDS011;64759;52.220;5.170;2022-12-24T08:25:17;62.38;;;10.02;;
76059;SDS011;64759;52.220;5.170;2022-12-24T08:27:42;77.78;;;11.27;;
76059;SDS011;64759;52.220;5.170;2022-12-24T08:30:07;62.20;;;8.73;;
76059;SDS011;64759;52.220;5.170;2022-12-24T08:32:33;51.67;;;7.63;;
76059;SDS011;64759;52.220;5.170;2022-12-24T08:34:59;70.90;;;11.07;;
76059;SDS011;64759;52.220;5.170;2022-12-24T08:37:24;64.93;;;9.55;;
76059;SDS011;64759;52.220;5.170;2022-12-24T08:39:49;60.60;;;9.88;;
76059;SDS011;64759;52.220;5.170;2022-12-24T08:42:15;62.75;;;10.30;;
76059;SDS011;64759;52.220;5.170;2022-12-24T08:44:41;74.70;;;11.23;;
76059;SDS011;64759;52.220;5.170;2022-12-24T08:47:06;57.90;;;8.93;;
76059;SDS011;64759;52.220;5.170;2022-12-24T08:49:31;71.57;;;10.27;;
76059;SDS011;64759;52.220;5.170;2022-12-24T08:51:57;62.42;;;10.93;;
76059;SDS011;64759;52.220;5.170;2022-12-24T08:54:22;60.97;;;8.27;;
76059;SDS011;64759;52.220;5.170;2022-12-24T08:56:49;63.65;;;9.50;;
76059;SDS011;64759;52.220;5.170;2022-12-24T08:59:14;55.80;;;8.02;;
76059;SDS011;64759;52.220;5.170;2022-12-24T09:01:40;52.53;;;8.85;;
76059;SDS011;64759;52.220;5.170;2022-12-24T09:04:05;52.75;;;9.57;;
76059;SDS011;64759;52.220;5.170;2022-12-24T09:06:31;51.45;;;7.40;;
76059;SDS011;64759;52.220;5.170;2022-12-24T09:08:57;54.08;;;8.93;;
76059;SDS011;64759;52.220;5.170;2022-12-24T09:11:22;59.72;;;8.00;;
76059;SDS011;64759;52.220;5.170;2022-12-24T09:13:48;51.42;;;9.55;;
76059;SDS011;64759;52.220;5.170;2022-12-24T09:16:14;63.53;;;8.50;;
76059;SDS011;64759;52.220;5.170;2022-12-24T09:18:39;83.55;;;11.40;;
76059;SDS011;64759;52.220;5.170;2022-12-24T09:21:06;54.55;;;8.30;;
76059;SDS011;64759;52.220;5.170;2022-12-24T09:23:34;51.15;;;8.85;;
76059;SDS011;64759;52.220;5.170;2022-12-24T09:26:07;70.80;;;9.60;;
76059;SDS011;64759;52.220;5.170;2022-12-24T09:28:36;49.25;;;8.13;;
76059;SDS011;64759;52.220;5.170;2022-12-24T09:31:01;75.07;;;10.77;;
76059;SDS011;64759;52.220;5.170;2022-12-24T09:33:28;63.25;;;9.77;;
76059;SDS011;64759;52.220;5.170;2022-12-24T09:35:55;55.50;;;8.52;;
76059;SDS011;64759;52.220;5.170;2022-12-24T09:38:22;58.97;;;9.20;;
76059;SDS011;64759;52.220;5.170;2022-12-24T09:40:48;64.40;;;8.63;;
76059;SDS011;64759;52.220;5.170;2022-12-24T09:43:17;60.10;;;9.00;;
76059;SDS011;64759;52.220;5.170;2022-12-24T09:45:47;50.95;;;9.38;;
76059;SDS011;64759;52.220;5.170;2022-12-24T09:48:20;66.75;;;9.50;;
76059;SDS011;64759;52.220;5.170;2022-12-24T09:50:56;62.28;;;9.40;;
76059;SDS011;64759;52.220;5.170;2022-12-24T09:53:46;61.00;;;10.07;;
76059;SDS011;64759;52.220;5.170;2022-12-24T09:56:36;52.10;;;9.20;;
76059;SDS011;64759;52.220;5.170;2022-12-24T09:59:04;56.53;;;8.60;;
76059;SDS011;64759;52.220;5.170;2022-12-24T10:01:35;78.13;;;9.45;;
76059;SDS011;64759;52.220;5.170;2022-12-24T10:04:01;57.45;;;8.52;;
76059;SDS011;64759;52.220;5.170;2022-12-24T10:06:37;56.95;;;9.02;;
76059;SDS011;64759;52.220;5.170;2022-12-24T10:14:39;48.65;;;7.97;;
76059;SDS011;64759;52.220;5.170;2022-12-24T10:17:29;47.25;;;8.27;;
76059;SDS011;64759;52.220;5.170;2022-12-24T10:20:20;54.35;;;9.07;;
76059;SDS011;64759;52.220;5.170;2022-12-24T10:25:25;50.15;;;9.57;;
76059;SDS011;64759;52.220;5.170;2022-12-24T10:27:57;64.95;;;9.50;;
76059;SDS011;64759;52.220;5.170;2022-12-24T10:30:26;56.15;;;8.07;;
76059;SDS011;64759;52.220;5.170;2022-12-24T10:32:53;57.10;;;8.88;;
76059;SDS011;64759;52.220;5.170;2022-12-24T10:35:24;49.50;;;8.10;;
76059;SDS011;64759;52.220;5.170;2022-12-24T10:37:53;55.50;;;9.82;;
76059;SDS011;64759;52.220;5.170;2022-12-24T10:42:51;70.55;;;9.95;;
76059;SDS011;64759;52.220;5.170;2022-12-24T10:45:18;46.78;;;8.35;;
76059;SDS011;64759;52.220;5.170;2022-12-24T10:47:47;50.50;;;7.87;;
76059;SDS011;64759;52.220;5.170;2022-12-24T10:50:37;57.13;;;7.78;;
76059;SDS011;64759;52.220;5.170;2022-12-24T10:53:23;53.22;;;7.97;;
76059;SDS011;64759;52.220;5.170;2022-12-24T10:56:02;54.80;;;8.35;;
76059;SDS011;64759;52.220;5.170;2022-12-24T10:58:30;56.58;;;10.02;;
76059;SDS011;64759;52.220;5.170;2022-12-24T11:00:56;44.75;;;10.10;;
76059;SDS011;64759;52.220;5.170;2022-12-24T11:03:30;43.13;;;7.15;;
76059;SDS011;64759;52.220;5.170;2022-12-24T11:05:58;53.80;;;9.02;;
76059;SDS011;64759;52.220;5.170;2022-12-24T11:08:26;49.10;;;8.43;;
76059;SDS011;64759;52.220;5.170;2022-12-24T11:10:56;51.83;;;7.75;;
76059;SDS011;64759;52.220;5.170;2022-12-24T11:13:33;63.03;;;8.48;;
76059;SDS011;64759;52.220;5.170;2022-12-24T11:18:58;55.72;;;7.55;;
76059;SDS011;64759;52.220;5.170;2022-12-24T11:26:38;44.20;;;8.00;;
76059;SDS011;64759;52.220;5.170;2022-12-24T11:31:33;58.58;;;8.32;;
76059;SDS011;64759;52.220;5.170;2022-12-24T11:34:03;45.47;;;7.43;;
76059;SDS011;64759;52.220;5.170;2022-12-24T11:36:41;49.47;;;7.32;;
76059;SDS011;64759;52.220;5.170;2022-12-24T11:39:10;37.50;;;6.68;;
76059;SDS011;64759;52.220;5.170;2022-12-24T11:41:43;40.80;;;7.72;;
76059;SDS011;64759;52.220;5.170;2022-12-24T11:44:09;57.35;;;9.57;;
76059;SDS011;64759;52.220;5.170;2022-12-24T11:46:37;41.67;;;6.50;;
76059;SDS011;64759;52.220;5.170;2022-12-24T11:51:30;58.05;;;8.90;;
76059;SDS011;64759;52.220;5.170;2022-12-24T11:54:01;43.38;;;6.50;;
76059;SDS011;64759;52.220;5.170;2022-12-24T11:56:51;47.03;;;8.10;;
76059;SDS011;64759;52.220;5.170;2022-12-24T11:59:27;36.67;;;6.38;;
76059;SDS011;64759;52.220;5.170;2022-12-24T12:01:58;45.40;;;8.20;;
76059;SDS011;64759;52.220;5.170;2022-12-24T12:04:29;44.22;;;7.65;;
76059;SDS011;64759;52.220;5.170;2022-12-24T12:06:58;44.72;;;8.13;;
76059;SDS011;64759;52.220;5.170;2022-12-24T12:09:31;39.35;;;6.93;;
76059;SDS011;64759;52.220;5.170;2022-12-24T12:12:04;33.17;;;6.10;;
76059;SDS011;64759;52.220;5.170;2022-12-24T12:17:12;46.40;;;6.90;;
76059;SDS011;64759;52.220;5.170;2022-12-24T12:19:56;39.45;;;6.45;;
76059;SDS011;64759;52.220;5.170;2022-12-24T12:25:29;42.47;;;6.85;;
76059;SDS011;64759;52.220;5.170;2022-12-24T12:28:01;41.47;;;6.78;;
76059;SDS011;64759;52.220;5.170;2022-12-24T12:30:31;29.33;;;6.03;;
76059;SDS011;64759;52.220;5.170;2022-12-24T12:33:22;40.05;;;6.93;;
76059;SDS011;64759;52.220;5.170;2022-12-24T12:35:52;38.53;;;6.40;;
76059;SDS011;64759;52.220;5.170;2022-12-24T12:38:21;32.90;;;5.20;;
76059;SDS011;64759;52.220;5.170;2022-12-24T12:46:20;39.47;;;6.75;;
76059;SDS011;64759;52.220;5.170;2022-12-24T12:54:34;37.28;;;6.53;;
76059;SDS011;64759;52.220;5.170;2022-12-24T12:57:24;41.72;;;7.78;;
76059;SDS011;64759;52.220;5.170;2022-12-24T12:59:56;44.03;;;6.20;;
76059;SDS011;64759;52.220;5.170;2022-12-24T13:16:44;38.80;;;6.40;;
76059;SDS011;64759;52.220;5.170;2022-12-24T13:21:47;36.50;;;6.78;;
76059;SDS011;64759;52.220;5.170;2022-12-24T13:29:28;39.50;;;6.88;;
76059;SDS011;64759;52.220;5.170;2022-12-24T13:34:50;41.35;;;6.90;;
76059;SDS011;64759;52.220;5.170;2022-12-24T13:42:46;32.28;;;5.97;;
76059;SDS011;64759;52.220;5.170;2022-12-24T13:47:56;36.50;;;6.85;;
76059;SDS011;64759;52.220;5.170;2022-12-24T13:53:00;39.72;;;5.85;;
76059;SDS011;64759;52.220;5.170;2022-12-24T13:55:26;41.28;;;6.47;;
76059;SDS011;64759;52.220;5.170;2022-12-24T13:57:53;37.80;;;6.45;;
76059;SDS011;64759;52.220;5.170;2022-12-24T14:03:40;32.03;;;5.97;;
76059;SDS011;64759;52.220;5.170;2022-12-24T14:16:07;42.08;;;6.28;;
76059;SDS011;64759;52.220;5.170;2022-12-24T14:18:44;35.03;;;6.55;;
76059;SDS011;64759;52.220;5.170;2022-12-24T14:21:16;33.20;;;5.68;;
76059;SDS011;64759;52.220;5.170;2022-12-24T14:23:53;31.70;;;5.85;;
76059;SDS011;64759;52.220;5.170;2022-12-24T14:26:29;32.05;;;5.32;;
76059;SDS011;64759;52.220;5.170;2022-12-24T14:31:53;38.35;;;5.68;;
76059;SDS011;64759;52.220;5.170;2022-12-24T14:34:20;48.80;;;7.43;;
76059;SDS011;64759;52.220;5.170;2022-12-24T14:36:46;35.05;;;5.40;;
76059;SDS011;64759;52.220;5.170;2022-12-24T14:39:19;30.17;;;5.93;;
76059;SDS011;64759;52.220;5.170;2022-12-24T14:41:57;34.53;;;7.47;;
76059;SDS011;64759;52.220;5.170;2022-12-24T14:44:30;40.22;;;6.00;;
76059;SDS011;64759;52.220;5.170;2022-12-24T14:47:12;34.45;;;6.00;;
76059;SDS011;64759;52.220;5.170;2022-12-24T14:49:52;31.95;;;6.40;;
76059;SDS011;64759;52.220;5.170;2022-12-24T14:52:52;35.63;;;5.72;;
76059;SDS011;64759;52.220;5.170;2022-12-24T14:55:41;28.13;;;5.13;;
76059;SDS011;64759;52.220;5.170;2022-12-24T15:01:17;29.88;;;5.53;;
76059;SDS011;64759;52.220;5.170;2022-12-24T15:03:45;43.05;;;6.20;;
76059;SDS011;64759;52.220;5.170;2022-12-24T15:06:11;30.70;;;6.38;;
76059;SDS011;64759;52.220;5.170;2022-12-24T15:08:44;41.22;;;6.68;;
76059;SDS011;64759;52.220;5.170;2022-12-24T15:11:20;39.97;;;6.05;;
76059;SDS011;64759;52.220;5.170;2022-12-24T15:13:48;31.42;;;5.88;;
76059;SDS011;64759;52.220;5.170;2022-12-24T15:16:20;47.08;;;8.80;;
76059;SDS011;64759;52.220;5.170;2022-12-24T15:18:50;49.47;;;9.02;;
76059;SDS011;64759;52.220;5.170;2022-12-24T15:21:37;48.95;;;8.45;;
76059;SDS011;64759;52.220;5.170;2022-12-24T15:26:56;38.58;;;8.00;;
76059;SDS011;64759;52.220;5.170;2022-12-24T15:29:23;43.15;;;8.20;;
76059;SDS011;64759;52.220;5.170;2022-12-24T15:31:54;48.03;;;9.68;;
76059;SDS011;64759;52.220;5.170;2022-12-24T15:34:25;42.60;;;9.65;;
76059;SDS011;64759;52.220;5.170;2022-12-24T15:37:03;40.90;;;10.93;;
76059;SDS011;64759;52.220;5.170;2022-12-24T15:41:54;41.65;;;9.18;;
76059;SDS011;64759;52.220;5.170;2022-12-24T15:44:39;37.40;;;7.75;;
76059;SDS011;64759;52.220;5.170;2022-12-24T15:47:12;39.38;;;7.22;;
76059;SDS011;64759;52.220;5.170;2022-12-24T15:49:42;47.33;;;7.78;;
76059;SDS011;64759;52.220;5.170;2022-12-24T15:52:12;37.50;;;7.93;;
76059;SDS011;64759;52.220;5.170;2022-12-24T15:54:46;44.60;;;7.65;;
76059;SDS011;64759;52.220;5.170;2022-12-24T15:57:21;42.55;;;7.90;;
76059;SDS011;64759;52.220;5.170;2022-12-24T15:59:55;35.45;;;8.02;;
76059;SDS011;64759;52.220;5.170;2022-12-24T16:10:38;63.65;;;17.02;;
76059;SDS011;64759;52.220;5.170;2022-12-24T16:13:14;61.38;;;15.63;;
76059;SDS011;64759;52.220;5.170;2022-12-24T16:15:50;46.80;;;12.10;;
76059;SDS011;64759;52.220;5.170;2022-12-24T16:18:24;61.70;;;13.68;;
76059;SDS011;64759;52.220;5.170;2022-12-24T16:20:52;58.72;;;15.52;;
76059;SDS011;64759;52.220;5.170;2022-12-24T16:23:20;56.10;;;14.85;;
76059;SDS011;64759;52.220;5.170;2022-12-24T16:25:48;62.15;;;14.07;;
76059;SDS011;64759;52.220;5.170;2022-12-24T16:28:14;63.92;;;13.38;;
76059;SDS011;64759;52.220;5.170;2022-12-24T16:30:40;56.03;;;10.95;;
76059;SDS011;64759;52.220;5.170;2022-12-24T16:33:11;51.22;;;11.23;;
76059;SDS011;64759;52.220;5.170;2022-12-24T16:35:39;60.92;;;12.05;;
76059;SDS011;64759;52.220;5.170;2022-12-24T16:38:04;54.97;;;11.18;;
76059;SDS011;64759;52.220;5.170;2022-12-24T16:40:29;60.75;;;10.55;;
76059;SDS011;64759;52.220;5.170;2022-12-24T16:42:56;62.90;;;11.85;;
76059;SDS011;64759;52.220;5.170;2022-12-24T16:45:40;61.63;;;14.82;;
76059;SDS011;64759;52.220;5.170;2022-12-24T16:48:06;70.38;;;13.48;;
76059;SDS011;64759;52.220;5.170;2022-12-24T16:50:33;57.47;;;15.48;;
76059;SDS011;64759;52.220;5.170;2022-12-24T16:52:59;72.68;;;13.98;;
76059;SDS011;64759;52.220;5.170;2022-12-24T16:55:24;68.63;;;12.35;;
76059;SDS011;64759;52.220;5.170;2022-12-24T16:57:49;71.70;;;12.20;;